sensor_id;sensor_type;location;lat;lon;timestamp;temperature;humidity
19000;DHT22;9633;50.980;13.850;2022-12-26T00:01:24;9.30;99.90
19000;DHT22;9633;50.980;13.850;2022-12-26T00:02:56;9.30;99.90
19000;DHT22;9633;50.980;13.850;2022-12-26T00:04:29;9.20;99.90
19000;DHT22;9633;50.980;13.850;2022-12-26T00:06:25;9.20;99.90
19000;DHT22;9633;50.980;13.850;2022-12-26T00:07:59;9.10;99.90
19000;DHT22;9633;50.980;13.850;2022-12-26T00:09:32;9.10;99.90
19000;DHT22;9633;50.980;13.850;2022-12-26T00:11:05;9.10;99.90
19000;DHT22;9633;50.980;13.850;2022-12-26T00:12:37;9.10;99.90
19000;DHT22;9633;50.980;13.850;2022-12-26T00:14:13;9.10;99.90
19000;DHT22;9633;50.980;13.850;2022-12-26T00:15:45;9.20;99.90
19000;DHT22;9633;50.980;13.850;2022-12-26T00:17:19;9.20;99.90
19000;DHT22;9633;50.980;13.850;2022-12-26T00:18:52;9.20;99.90
19000;DHT22;9633;50.980;13.850;2022-12-26T00:20:25;9.10;99.90
19000;DHT22;9633;50.980;13.850;2022-12-26T00:22:00;9.20;99.90
19000;DHT22;9633;50.980;13.850;2022-12-26T00:23:34;9.20;99.90
19000;DHT22;9633;50.980;13.850;2022-12-26T00:25:07;9.20;99.90
19000;DHT22;9633;50.980;13.850;2022-12-26T00:26:40;9.20;99.90
19000;DHT22;9633;50.980;13.850;2022-12-26T00:28:13;9.10;99.90
19000;DHT22;9633;50.980;13.850;2022-12-26T00:29:46;9.20;99.90
19000;DHT22;9633;50.980;13.850;2022-12-26T00:31:21;9.20;99.90
19000;DHT22;9633;50.980;13.850;2022-12-26T00:32:55;9.20;99.90
19000;DHT22;9633;50.980;13.850;2022-12-26T00:34:27;9.20;99.90
19000;DHT22;9633;50.980;13.850;2022-12-26T00:36:01;9.30;99.90
19000;DHT22;9633;50.980;13.850;2022-12-26T00:37:36;9.30;99.90
19000;DHT22;9633;50.980;13.850;2022-12-26T00:39:09;9.30;99.90
19000;DHT22;9633;50.980;13.850;2022-12-26T00:40:42;9.30;99.90
19000;DHT22;9633;50.980;13.850;2022-12-26T00:42:15;9.30;99.90
19000;DHT22;9633;50.980;13.850;2022-12-26T00:43:49;9.30;99.90
19000;DHT22;9633;50.980;13.850;2022-12-26T00:45:21;9.30;99.90
19000;DHT22;9633;50.980;13.850;2022-12-26T00:46:54;9.20;99.90
19000;DHT22;9633;50.980;13.850;2022-12-26T00:48:28;9.20;99.90
19000;DHT22;9633;50.980;13.850;2022-12-26T00:50:01;9.20;99.90
19000;DHT22;9633;50.980;13.850;2022-12-26T00:51:45;9.10;99.90
19000;DHT22;9633;50.980;13.850;2022-12-26T00:53:20;9.10;99.90
19000;DHT22;9633;50.980;13.850;2022-12-26T00:54:52;9.10;99.90
19000;DHT22;9633;50.980;13.850;2022-12-26T00:56:25;9.10;99.90
19000;DHT22;9633;50.980;13.850;2022-12-26T00:57:58;9.10;99.90
19000;DHT22;9633;50.980;13.850;2022-12-26T00:59:31;9.10;99.90
19000;DHT22;9633;50.980;13.850;2022-12-26T01:01:07;9.00;99.90
19000;DHT22;9633;50.980;13.850;2022-12-26T01:02:41;9.00;99.90
19000;DHT22;9633;50.980;13.850;2022-12-26T01:04:13;9.00;99.90
19000;DHT22;9633;50.980;13.850;2022-12-26T01:05:48;9.00;99.90
19000;DHT22;9633;50.980;13.850;2022-12-26T01:07:21;9.00;99.90
19000;DHT22;9633;50.980;13.850;2022-12-26T01:08:55;9.00;99.90
19000;DHT22;9633;50.980;13.850;2022-12-26T01:10:30;9.00;99.90
19000;DHT22;9633;50.980;13.850;2022-12-26T01:12:03;9.00;99.90
19000;DHT22;9633;50.980;13.850;2022-12-26T01:13:36;9.10;99.90
19000;DHT22;9633;50.980;13.850;2022-12-26T01:15:09;9.00;99.90
19000;DHT22;9633;50.980;13.850;2022-12-26T01:16:43;9.00;99.90
19000;DHT22;9633;50.980;13.850;2022-12-26T01:18:17;9.00;99.90
19000;DHT22;9633;50.980;13.850;2022-12-26T01:19:50;9.00;99.90
19000;DHT22;9633;50.980;13.850;2022-12-26T01:21:23;9.00;99.90
19000;DHT22;9633;50.980;13.850;2022-12-26T01:22:56;9.00;99.90
19000;DHT22;9633;50.980;13.850;2022-12-26T01:24:31;8.90;99.90
19000;DHT22;9633;50.980;13.850;2022-12-26T01:26:04;8.90;99.90
19000;DHT22;9633;50.980;13.850;2022-12-26T01:27:53;8.90;99.90
19000;DHT22;9633;50.980;13.850;2022-12-26T01:29:26;9.00;99.90
19000;DHT22;9633;50.980;13.850;2022-12-26T01:31:00;9.10;99.90
19000;DHT22;9633;50.980;13.850;2022-12-26T01:32:34;9.10;99.90
19000;DHT22;9633;50.980;13.850;2022-12-26T01:34:06;9.10;99.90
19000;DHT22;9633;50.980;13.850;2022-12-26T01:35:48;9.10;99.90
19000;DHT22;9633;50.980;13.850;2022-12-26T01:37:21;9.10;99.90
19000;DHT22;9633;50.980;13.850;2022-12-26T01:38:54;9.10;99.90
19000;DHT22;9633;50.980;13.850;2022-12-26T01:40:29;9.10;99.90
19000;DHT22;9633;50.980;13.850;2022-12-26T01:42:01;9.10;99.90
19000;DHT22;9633;50.980;13.850;2022-12-26T01:43:53;9.00;99.90
19000;DHT22;9633;50.980;13.850;2022-12-26T01:45:28;9.10;99.90
19000;DHT22;9633;50.980;13.850;2022-12-26T01:47:01;9.10;99.90
19000;DHT22;9633;50.980;13.850;2022-12-26T01:48:34;9.10;99.90
19000;DHT22;9633;50.980;13.850;2022-12-26T01:50:18;9.10;99.90
19000;DHT22;9633;50.980;13.850;2022-12-26T01:51:59;9.00;99.90
19000;DHT22;9633;50.980;13.850;2022-12-26T01:53:35;9.10;99.90
19000;DHT22;9633;50.980;13.850;2022-12-26T01:55:13;9.10;99.90
19000;DHT22;9633;50.980;13.850;2022-12-26T01:56:48;9.10;99.90
19000;DHT22;9633;50.980;13.850;2022-12-26T01:58:23;9.10;99.90
19000;DHT22;9633;50.980;13.850;2022-12-26T02:00:00;9.10;99.90
19000;DHT22;9633;50.980;13.850;2022-12-26T02:01:44;9.10;99.90
19000;DHT22;9633;50.980;13.850;2022-12-26T02:03:21;9.00;99.90
19000;DHT22;9633;50.980;13.850;2022-12-26T02:05:11;9.00;99.90
19000;DHT22;9633;50.980;13.850;2022-12-26T02:07:03;9.10;99.90
19000;DHT22;9633;50.980;13.850;2022-12-26T02:08:37;9.10;99.90
19000;DHT22;9633;50.980;13.850;2022-12-26T02:10:13;9.00;99.90
19000;DHT22;9633;50.980;13.850;2022-12-26T02:11:51;9.00;99.90
19000;DHT22;9633;50.980;13.850;2022-12-26T02:13:46;9.10;99.90
19000;DHT22;9633;50.980;13.850;2022-12-26T02:15:19;9.00;99.90
19000;DHT22;9633;50.980;13.850;2022-12-26T02:16:51;9.00;99.90
19000;DHT22;9633;50.980;13.850;2022-12-26T02:18:24;9.00;99.90
19000;DHT22;9633;50.980;13.850;2022-12-26T02:20:04;9.10;99.90
19000;DHT22;9633;50.980;13.850;2022-12-26T02:22:05;9.00;99.90
19000;DHT22;9633;50.980;13.850;2022-12-26T02:24:09;9.00;99.90
19000;DHT22;9633;50.980;13.850;2022-12-26T02:28:16;8.90;99.90
19000;DHT22;9633;50.980;13.850;2022-12-26T02:30:06;8.90;99.90
19000;DHT22;9633;50.980;13.850;2022-12-26T02:31:47;8.90;99.90
19000;DHT22;9633;50.980;13.850;2022-12-26T02:33:41;8.80;99.90
19000;DHT22;9633;50.980;13.850;2022-12-26T02:35:23;8.70;99.90
19000;DHT22;9633;50.980;13.850;2022-12-26T02:37:10;8.70;99.90
19000;DHT22;9633;50.980;13.850;2022-12-26T02:38:57;8.60;99.90
19000;DHT22;9633;50.980;13.850;2022-12-26T02:41:03;8.70;99.90
19000;DHT22;9633;50.980;13.850;2022-12-26T02:42:48;8.80;99.90
19000;DHT22;9633;50.980;13.850;2022-12-26T02:44:27;8.90;99.90
19000;DHT22;9633;50.980;13.850;2022-12-26T02:46:24;8.90;99.90
19000;DHT22;9633;50.980;13.850;2022-12-26T02:48:23;8.80;99.90
19000;DHT22;9633;50.980;13.850;2022-12-26T02:50:06;8.70;99.90
19000;DHT22;9633;50.980;13.850;2022-12-26T02:52:06;8.70;99.90
19000;DHT22;9633;50.980;13.850;2022-12-26T02:54:05;8.60;99.90
19000;DHT22;9633;50.980;13.850;2022-12-26T02:56:05;8.60;99.90
19000;DHT22;9633;50.980;13.850;2022-12-26T02:58:09;8.50;99.90
19000;DHT22;9633;50.980;13.850;2022-12-26T03:00:04;8.40;99.90
19000;DHT22;9633;50.980;13.850;2022-12-26T03:01:56;8.40;99.90
19000;DHT22;9633;50.980;13.850;2022-12-26T03:03:53;8.40;99.90
19000;DHT22;9633;50.980;13.850;2022-12-26T03:05:48;8.40;99.90
19000;DHT22;9633;50.980;13.850;2022-12-26T03:07:41;8.40;99.90
19000;DHT22;9633;50.980;13.850;2022-12-26T03:09:32;8.30;99.90
19000;DHT22;9633;50.980;13.850;2022-12-26T03:11:26;8.40;99.90
19000;DHT22;9633;50.980;13.850;2022-12-26T03:13:23;8.40;99.90
19000;DHT22;9633;50.980;13.850;2022-12-26T03:15:00;8.40;99.90
19000;DHT22;9633;50.980;13.850;2022-12-26T03:16:33;8.50;99.90
19000;DHT22;9633;50.980;13.850;2022-12-26T03:18:25;8.50;99.90
19000;DHT22;9633;50.980;13.850;2022-12-26T03:20:23;8.50;99.90
19000;DHT22;9633;50.980;13.850;2022-12-26T03:22:00;8.50;99.90
19000;DHT22;9633;50.980;13.850;2022-12-26T03:23:55;8.50;99.90
19000;DHT22;9633;50.980;13.850;2022-12-26T03:25:38;8.50;99.90
19000;DHT22;9633;50.980;13.850;2022-12-26T03:27:29;8.60;99.90
19000;DHT22;9633;50.980;13.850;2022-12-26T03:29:01;8.60;99.90
19000;DHT22;9633;50.980;13.850;2022-12-26T03:30:50;8.70;99.90
19000;DHT22;9633;50.980;13.850;2022-12-26T03:32:23;8.70;99.90
19000;DHT22;9633;50.980;13.850;2022-12-26T03:34:05;8.70;99.90
19000;DHT22;9633;50.980;13.850;2022-12-26T03:35:52;8.80;99.90
19000;DHT22;9633;50.980;13.850;2022-12-26T03:37:43;8.80;99.90
19000;DHT22;9633;50.980;13.850;2022-12-26T03:39:30;8.80;99.90
19000;DHT22;9633;50.980;13.850;2022-12-26T03:41:25;8.80;99.90
19000;DHT22;9633;50.980;13.850;2022-12-26T03:43:26;8.80;99.90
19000;DHT22;9633;50.980;13.850;2022-12-26T03:45:38;8.80;99.90
19000;DHT22;9633;50.980;13.850;2022-12-26T03:47:38;8.80;99.90
19000;DHT22;9633;50.980;13.850;2022-12-26T03:49:34;8.80;99.90
19000;DHT22;9633;50.980;13.850;2022-12-26T03:51:32;8.80;99.90
19000;DHT22;9633;50.980;13.850;2022-12-26T03:53:28;8.90;99.90
19000;DHT22;9633;50.980;13.850;2022-12-26T03:55:25;8.90;99.90
19000;DHT22;9633;50.980;13.850;2022-12-26T03:57:20;9.00;99.90
19000;DHT22;9633;50.980;13.850;2022-12-26T03:59:15;9.00;99.90
19000;DHT22;9633;50.980;13.850;2022-12-26T04:01:20;9.10;99.90
19000;DHT22;9633;50.980;13.850;2022-12-26T04:03:13;9.00;99.90
19000;DHT22;9633;50.980;13.850;2022-12-26T04:05:05;9.00;99.90
19000;DHT22;9633;50.980;13.850;2022-12-26T04:07:05;9.00;99.90
19000;DHT22;9633;50.980;13.850;2022-12-26T04:08:59;9.00;99.90
19000;DHT22;9633;50.980;13.850;2022-12-26T04:10:54;9.00;99.90
19000;DHT22;9633;50.980;13.850;2022-12-26T04:12:47;9.00;99.90
19000;DHT22;9633;50.980;13.850;2022-12-26T04:14:42;9.00;99.90
19000;DHT22;9633;50.980;13.850;2022-12-26T04:16:37;8.90;99.90
19000;DHT22;9633;50.980;13.850;2022-12-26T04:18:32;8.90;99.90
19000;DHT22;9633;50.980;13.850;2022-12-26T04:20:29;8.90;99.90
19000;DHT22;9633;50.980;13.850;2022-12-26T04:22:08;8.80;99.90
19000;DHT22;9633;50.980;13.850;2022-12-26T04:24:11;8.80;99.90
19000;DHT22;9633;50.980;13.850;2022-12-26T04:26:06;8.80;99.90
19000;DHT22;9633;50.980;13.850;2022-12-26T04:27:58;8.80;99.90
19000;DHT22;9633;50.980;13.850;2022-12-26T04:29:48;8.70;99.90
19000;DHT22;9633;50.980;13.850;2022-12-26T04:31:44;8.70;99.90
19000;DHT22;9633;50.980;13.850;2022-12-26T04:33:41;8.70;99.90
19000;DHT22;9633;50.980;13.850;2022-12-26T04:35:40;8.70;99.90
19000;DHT22;9633;50.980;13.850;2022-12-26T04:37:35;8.70;99.90
19000;DHT22;9633;50.980;13.850;2022-12-26T04:39:31;8.60;99.90
19000;DHT22;9633;50.980;13.850;2022-12-26T04:41:24;8.60;99.90
19000;DHT22;9633;50.980;13.850;2022-12-26T04:43:17;8.60;99.90
19000;DHT22;9633;50.980;13.850;2022-12-26T04:45:22;8.50;99.90
19000;DHT22;9633;50.980;13.850;2022-12-26T04:46:56;8.40;99.90
19000;DHT22;9633;50.980;13.850;2022-12-26T04:48:28;8.40;99.90
19000;DHT22;9633;50.980;13.850;2022-12-26T04:50:19;8.40;99.90
19000;DHT22;9633;50.980;13.850;2022-12-26T04:51:54;8.40;99.90
19000;DHT22;9633;50.980;13.850;2022-12-26T04:53:28;8.50;99.90
19000;DHT22;9633;50.980;13.850;2022-12-26T04:55:01;8.40;99.90
19000;DHT22;9633;50.980;13.850;2022-12-26T04:56:34;8.40;99.90
19000;DHT22;9633;50.980;13.850;2022-12-26T04:58:07;8.30;99.90
19000;DHT22;9633;50.980;13.850;2022-12-26T04:59:40;8.30;99.90
19000;DHT22;9633;50.980;13.850;2022-12-26T05:01:13;8.30;99.90
19000;DHT22;9633;50.980;13.850;2022-12-26T05:03:04;8.20;99.90
19000;DHT22;9633;50.980;13.850;2022-12-26T05:04:55;8.20;99.90
19000;DHT22;9633;50.980;13.850;2022-12-26T05:06:45;8.10;99.90
19000;DHT22;9633;50.980;13.850;2022-12-26T05:08:39;8.10;99.90
19000;DHT22;9633;50.980;13.850;2022-12-26T05:10:39;8.10;99.90
19000;DHT22;9633;50.980;13.850;2022-12-26T05:12:12;8.00;99.90
19000;DHT22;9633;50.980;13.850;2022-12-26T05:13:44;8.00;99.90
19000;DHT22;9633;50.980;13.850;2022-12-26T05:15:17;8.10;99.90
19000;DHT22;9633;50.980;13.850;2022-12-26T05:16:51;8.20;99.90
19000;DHT22;9633;50.980;13.850;2022-12-26T05:18:41;8.20;99.90
19000;DHT22;9633;50.980;13.850;2022-12-26T05:20:31;8.60;99.90
19000;DHT22;9633;50.980;13.850;2022-12-26T05:22:19;9.20;99.90
19000;DHT22;9633;50.980;13.850;2022-12-26T05:24:11;9.50;99.90
19000;DHT22;9633;50.980;13.850;2022-12-26T05:26:02;10.50;99.90
19000;DHT22;9633;50.980;13.850;2022-12-26T05:28:02;11.30;99.90
19000;DHT22;9633;50.980;13.850;2022-12-26T05:29:53;11.70;99.90
19000;DHT22;9633;50.980;13.850;2022-12-26T05:31:26;11.90;99.90
19000;DHT22;9633;50.980;13.850;2022-12-26T05:33:06;11.90;99.90
19000;DHT22;9633;50.980;13.850;2022-12-26T05:34:56;12.20;99.90
19000;DHT22;9633;50.980;13.850;2022-12-26T05:36:32;12.10;99.90
19000;DHT22;9633;50.980;13.850;2022-12-26T05:38:09;12.10;99.90
19000;DHT22;9633;50.980;13.850;2022-12-26T05:39:42;12.30;99.90
19000;DHT22;9633;50.980;13.850;2022-12-26T05:41:16;12.30;99.90
19000;DHT22;9633;50.980;13.850;2022-12-26T05:42:49;12.20;99.90
19000;DHT22;9633;50.980;13.850;2022-12-26T05:44:22;12.40;99.90
19000;DHT22;9633;50.980;13.850;2022-12-26T05:45:55;12.50;99.90
19000;DHT22;9633;50.980;13.850;2022-12-26T05:47:27;12.70;99.90
19000;DHT22;9633;50.980;13.850;2022-12-26T05:49:01;12.90;99.90
19000;DHT22;9633;50.980;13.850;2022-12-26T05:50:34;12.80;99.90
19000;DHT22;9633;50.980;13.850;2022-12-26T05:52:06;12.70;99.90
19000;DHT22;9633;50.980;13.850;2022-12-26T05:53:39;12.70;99.90
19000;DHT22;9633;50.980;13.850;2022-12-26T05:55:12;12.70;99.90
19000;DHT22;9633;50.980;13.850;2022-12-26T05:56:46;12.70;99.90
19000;DHT22;9633;50.980;13.850;2022-12-26T05:58:20;12.70;99.90
19000;DHT22;9633;50.980;13.850;2022-12-26T05:59:52;12.80;99.90
19000;DHT22;9633;50.980;13.850;2022-12-26T06:01:26;12.80;99.90
19000;DHT22;9633;50.980;13.850;2022-12-26T06:03:00;12.90;99.90
19000;DHT22;9633;50.980;13.850;2022-12-26T06:04:34;12.80;99.90
19000;DHT22;9633;50.980;13.850;2022-12-26T06:06:07;12.70;99.90
19000;DHT22;9633;50.980;13.850;2022-12-26T06:07:40;12.70;99.90
19000;DHT22;9633;50.980;13.850;2022-12-26T06:09:13;12.70;99.90
19000;DHT22;9633;50.980;13.850;2022-12-26T06:10:48;12.60;99.90
19000;DHT22;9633;50.980;13.850;2022-12-26T06:12:21;12.60;99.90
19000;DHT22;9633;50.980;13.850;2022-12-26T06:13:54;12.60;99.90
19000;DHT22;9633;50.980;13.850;2022-12-26T06:15:27;12.70;99.90
19000;DHT22;9633;50.980;13.850;2022-12-26T06:16:59;12.70;99.90
19000;DHT22;9633;50.980;13.850;2022-12-26T06:18:32;12.70;99.90
19000;DHT22;9633;50.980;13.850;2022-12-26T06:20:07;12.70;99.90
19000;DHT22;9633;50.980;13.850;2022-12-26T06:21:40;12.70;99.90
19000;DHT22;9633;50.980;13.850;2022-12-26T06:23:13;12.70;99.90
19000;DHT22;9633;50.980;13.850;2022-12-26T06:24:45;12.60;99.90
19000;DHT22;9633;50.980;13.850;2022-12-26T06:26:20;12.60;99.90
19000;DHT22;9633;50.980;13.850;2022-12-26T06:27:53;12.60;99.90
19000;DHT22;9633;50.980;13.850;2022-12-26T06:29:25;12.60;99.90
19000;DHT22;9633;50.980;13.850;2022-12-26T06:31:01;12.50;99.90
19000;DHT22;9633;50.980;13.850;2022-12-26T06:32:35;12.50;99.90
19000;DHT22;9633;50.980;13.850;2022-12-26T06:34:10;12.50;99.90
19000;DHT22;9633;50.980;13.850;2022-12-26T06:35:43;12.50;99.90
19000;DHT22;9633;50.980;13.850;2022-12-26T06:37:16;12.50;99.90
19000;DHT22;9633;50.980;13.850;2022-12-26T06:38:50;12.50;99.90
19000;DHT22;9633;50.980;13.850;2022-12-26T06:40:23;12.50;99.90
19000;DHT22;9633;50.980;13.850;2022-12-26T06:41:58;12.50;99.90
19000;DHT22;9633;50.980;13.850;2022-12-26T06:43:31;12.50;99.90
19000;DHT22;9633;50.980;13.850;2022-12-26T06:45:04;12.50;99.90
19000;DHT22;9633;50.980;13.850;2022-12-26T06:46:37;12.40;99.90
19000;DHT22;9633;50.980;13.850;2022-12-26T06:48:10;12.30;99.90
19000;DHT22;9633;50.980;13.850;2022-12-26T06:49:42;12.30;99.90
19000;DHT22;9633;50.980;13.850;2022-12-26T06:51:17;12.20;99.90
19000;DHT22;9633;50.980;13.850;2022-12-26T06:52:50;12.10;99.90
19000;DHT22;9633;50.980;13.850;2022-12-26T06:54:23;11.90;99.90
19000;DHT22;9633;50.980;13.850;2022-12-26T06:56:04;11.80;99.90
19000;DHT22;9633;50.980;13.850;2022-12-26T06:57:39;11.90;99.90
19000;DHT22;9633;50.980;13.850;2022-12-26T06:59:13;12.00;99.90
19000;DHT22;9633;50.980;13.850;2022-12-26T07:00:47;11.90;99.90
19000;DHT22;9633;50.980;13.850;2022-12-26T07:02:20;11.90;99.90
19000;DHT22;9633;50.980;13.850;2022-12-26T07:03:53;11.90;99.90
19000;DHT22;9633;50.980;13.850;2022-12-26T07:05:27;12.00;99.90
19000;DHT22;9633;50.980;13.850;2022-12-26T07:06:59;11.90;99.90
19000;DHT22;9633;50.980;13.850;2022-12-26T07:08:32;11.70;99.90
19000;DHT22;9633;50.980;13.850;2022-12-26T07:10:05;11.60;99.90
19000;DHT22;9633;50.980;13.850;2022-12-26T07:11:40;11.40;99.90
19000;DHT22;9633;50.980;13.850;2022-12-26T07:13:13;11.30;99.90
19000;DHT22;9633;50.980;13.850;2022-12-26T07:14:46;11.10;99.90
19000;DHT22;9633;50.980;13.850;2022-12-26T07:16:20;11.10;99.90
19000;DHT22;9633;50.980;13.850;2022-12-26T07:17:53;11.00;99.90
19000;DHT22;9633;50.980;13.850;2022-12-26T07:19:27;11.00;99.90
19000;DHT22;9633;50.980;13.850;2022-12-26T07:21:03;11.00;99.90
19000;DHT22;9633;50.980;13.850;2022-12-26T07:22:37;10.90;99.90
19000;DHT22;9633;50.980;13.850;2022-12-26T07:24:14;11.00;99.90
19000;DHT22;9633;50.980;13.850;2022-12-26T07:25:47;11.50;99.90
19000;DHT22;9633;50.980;13.850;2022-12-26T07:27:20;11.70;99.90
19000;DHT22;9633;50.980;13.850;2022-12-26T07:28:55;11.70;99.90
19000;DHT22;9633;50.980;13.850;2022-12-26T07:30:28;11.60;99.90
19000;DHT22;9633;50.980;13.850;2022-12-26T07:32:01;11.50;99.90
19000;DHT22;9633;50.980;13.850;2022-12-26T07:33:34;11.30;99.90
19000;DHT22;9633;50.980;13.850;2022-12-26T07:35:08;11.20;99.90
19000;DHT22;9633;50.980;13.850;2022-12-26T07:36:41;11.00;99.90
19000;DHT22;9633;50.980;13.850;2022-12-26T07:38:14;10.70;99.90
19000;DHT22;9633;50.980;13.850;2022-12-26T07:39:47;10.50;99.90
19000;DHT22;9633;50.980;13.850;2022-12-26T07:41:29;10.30;99.90
19000;DHT22;9633;50.980;13.850;2022-12-26T07:43:20;10.00;99.90
19000;DHT22;9633;50.980;13.850;2022-12-26T07:44:55;9.80;99.90
19000;DHT22;9633;50.980;13.850;2022-12-26T07:46:29;9.60;99.90
19000;DHT22;9633;50.980;13.850;2022-12-26T07:48:01;9.50;99.90
19000;DHT22;9633;50.980;13.850;2022-12-26T07:49:34;9.30;99.90
19000;DHT22;9633;50.980;13.850;2022-12-26T07:51:07;9.20;99.90
19000;DHT22;9633;50.980;13.850;2022-12-26T07:52:40;9.20;99.90
19000;DHT22;9633;50.980;13.850;2022-12-26T07:54:13;9.10;99.90
19000;DHT22;9633;50.980;13.850;2022-12-26T07:55:47;9.10;99.90
19000;DHT22;9633;50.980;13.850;2022-12-26T07:57:20;9.10;99.90
19000;DHT22;9633;50.980;13.850;2022-12-26T07:59:14;9.10;99.90
19000;DHT22;9633;50.980;13.850;2022-12-26T08:00:49;9.00;99.90
19000;DHT22;9633;50.980;13.850;2022-12-26T08:02:22;9.00;99.90
19000;DHT22;9633;50.980;13.850;2022-12-26T08:03:56;9.00;99.90
19000;DHT22;9633;50.980;13.850;2022-12-26T08:05:28;9.00;99.90
19000;DHT22;9633;50.980;13.850;2022-12-26T08:07:01;9.00;99.90
19000;DHT22;9633;50.980;13.850;2022-12-26T08:08:34;9.00;99.90
19000;DHT22;9633;50.980;13.850;2022-12-26T08:10:08;9.00;99.90
19000;DHT22;9633;50.980;13.850;2022-12-26T08:11:42;9.10;99.90
19000;DHT22;9633;50.980;13.850;2022-12-26T08:13:16;9.10;99.90
19000;DHT22;9633;50.980;13.850;2022-12-26T08:14:48;9.10;99.90
19000;DHT22;9633;50.980;13.850;2022-12-26T08:16:22;9.10;99.90
19000;DHT22;9633;50.980;13.850;2022-12-26T08:17:56;9.20;99.90
19000;DHT22;9633;50.980;13.850;2022-12-26T08:19:29;9.30;99.90
19000;DHT22;9633;50.980;13.850;2022-12-26T08:21:03;9.40;99.90
19000;DHT22;9633;50.980;13.850;2022-12-26T08:22:35;9.50;99.90
19000;DHT22;9633;50.980;13.850;2022-12-26T08:24:08;9.50;99.90
19000;DHT22;9633;50.980;13.850;2022-12-26T08:25:42;9.60;99.90
19000;DHT22;9633;50.980;13.850;2022-12-26T08:27:15;9.90;99.90
19000;DHT22;9633;50.980;13.850;2022-12-26T08:28:49;10.00;99.90
19000;DHT22;9633;50.980;13.850;2022-12-26T08:30:22;10.00;99.90
19000;DHT22;9633;50.980;13.850;2022-12-26T08:31:57;10.10;99.90
19000;DHT22;9633;50.980;13.850;2022-12-26T08:33:30;10.30;99.90
19000;DHT22;9633;50.980;13.850;2022-12-26T08:35:03;10.90;99.90
19000;DHT22;9633;50.980;13.850;2022-12-26T08:36:36;11.30;99.90
19000;DHT22;9633;50.980;13.850;2022-12-26T08:38:10;11.50;99.90
19000;DHT22;9633;50.980;13.850;2022-12-26T08:39:42;11.80;99.90
19000;DHT22;9633;50.980;13.850;2022-12-26T08:41:15;12.00;99.90
19000;DHT22;9633;50.980;13.850;2022-12-26T08:42:49;12.20;99.90
19000;DHT22;9633;50.980;13.850;2022-12-26T08:44:42;12.20;99.90
19000;DHT22;9633;50.980;13.850;2022-12-26T08:46:16;12.10;99.90
19000;DHT22;9633;50.980;13.850;2022-12-26T08:47:51;12.10;99.90
19000;DHT22;9633;50.980;13.850;2022-12-26T08:49:25;12.10;99.90
19000;DHT22;9633;50.980;13.850;2022-12-26T08:51:00;12.00;99.90
19000;DHT22;9633;50.980;13.850;2022-12-26T08:52:33;12.00;99.90
19000;DHT22;9633;50.980;13.850;2022-12-26T08:54:07;12.00;99.90
19000;DHT22;9633;50.980;13.850;2022-12-26T08:55:41;12.20;99.90
19000;DHT22;9633;50.980;13.850;2022-12-26T08:57:13;12.40;99.90
19000;DHT22;9633;50.980;13.850;2022-12-26T08:58:46;12.60;99.90
19000;DHT22;9633;50.980;13.850;2022-12-26T09:00:19;12.70;99.90
19000;DHT22;9633;50.980;13.850;2022-12-26T09:01:55;12.90;99.90
19000;DHT22;9633;50.980;13.850;2022-12-26T09:03:30;12.90;99.90
19000;DHT22;9633;50.980;13.850;2022-12-26T09:05:03;13.00;99.90
19000;DHT22;9633;50.980;13.850;2022-12-26T09:06:37;13.00;99.90
19000;DHT22;9633;50.980;13.850;2022-12-26T09:08:12;13.10;99.90
19000;DHT22;9633;50.980;13.850;2022-12-26T09:09:45;13.10;99.90
19000;DHT22;9633;50.980;13.850;2022-12-26T09:11:22;13.30;99.90
19000;DHT22;9633;50.980;13.850;2022-12-26T09:12:57;13.20;99.90
19000;DHT22;9633;50.980;13.850;2022-12-26T09:14:30;13.20;99.90
19000;DHT22;9633;50.980;13.850;2022-12-26T09:16:08;13.30;99.90
19000;DHT22;9633;50.980;13.850;2022-12-26T09:17:42;13.30;99.90
19000;DHT22;9633;50.980;13.850;2022-12-26T09:19:17;13.30;99.90
19000;DHT22;9633;50.980;13.850;2022-12-26T09:20:50;13.40;99.90
19000;DHT22;9633;50.980;13.850;2022-12-26T09:22:23;13.40;99.90
19000;DHT22;9633;50.980;13.850;2022-12-26T09:24:15;13.60;99.90
19000;DHT22;9633;50.980;13.850;2022-12-26T09:25:48;13.90;99.90
19000;DHT22;9633;50.980;13.850;2022-12-26T09:27:21;13.90;99.90
19000;DHT22;9633;50.980;13.850;2022-12-26T09:28:55;13.90;99.90
19000;DHT22;9633;50.980;13.850;2022-12-26T09:30:28;13.90;99.90
19000;DHT22;9633;50.980;13.850;2022-12-26T09:32:01;14.20;99.90
19000;DHT22;9633;50.980;13.850;2022-12-26T09:33:34;14.50;99.90
19000;DHT22;9633;50.980;13.850;2022-12-26T09:35:09;14.60;99.90
19000;DHT22;9633;50.980;13.850;2022-12-26T09:36:43;14.60;99.90
19000;DHT22;9633;50.980;13.850;2022-12-26T09:38:16;14.50;99.90
19000;DHT22;9633;50.980;13.850;2022-12-26T09:39:49;14.50;99.90
19000;DHT22;9633;50.980;13.850;2022-12-26T09:41:46;14.30;99.90
19000;DHT22;9633;50.980;13.850;2022-12-26T09:43:29;14.20;99.90
19000;DHT22;9633;50.980;13.850;2022-12-26T09:45:10;14.10;99.90
19000;DHT22;9633;50.980;13.850;2022-12-26T09:46:50;14.10;99.90
19000;DHT22;9633;50.980;13.850;2022-12-26T09:48:31;14.10;99.90
19000;DHT22;9633;50.980;13.850;2022-12-26T09:50:12;14.20;99.90
19000;DHT22;9633;50.980;13.850;2022-12-26T09:51:48;14.20;99.90
19000;DHT22;9633;50.980;13.850;2022-12-26T09:53:29;14.30;99.90
19000;DHT22;9633;50.980;13.850;2022-12-26T09:55:12;14.40;99.90
19000;DHT22;9633;50.980;13.850;2022-12-26T09:56:49;14.50;99.90
19000;DHT22;9633;50.980;13.850;2022-12-26T09:58:37;14.70;99.90
19000;DHT22;9633;50.980;13.850;2022-12-26T10:00:18;14.80;99.90
19000;DHT22;9633;50.980;13.850;2022-12-26T10:01:52;14.70;99.90
19000;DHT22;9633;50.980;13.850;2022-12-26T10:03:27;14.60;99.90
19000;DHT22;9633;50.980;13.850;2022-12-26T10:05:00;14.60;99.90
19000;DHT22;9633;50.980;13.850;2022-12-26T10:06:37;14.60;99.90
19000;DHT22;9633;50.980;13.850;2022-12-26T10:08:22;14.50;99.90
19000;DHT22;9633;50.980;13.850;2022-12-26T10:10:06;14.50;99.90
19000;DHT22;9633;50.980;13.850;2022-12-26T10:11:52;14.40;99.90
19000;DHT22;9633;50.980;13.850;2022-12-26T10:13:32;14.40;99.90
19000;DHT22;9633;50.980;13.850;2022-12-26T10:15:16;14.40;99.90
19000;DHT22;9633;50.980;13.850;2022-12-26T10:16:55;14.30;99.90
19000;DHT22;9633;50.980;13.850;2022-12-26T10:18:38;14.30;99.90
19000;DHT22;9633;50.980;13.850;2022-12-26T10:20:20;14.40;99.90
19000;DHT22;9633;50.980;13.850;2022-12-26T10:22:03;14.50;99.90
19000;DHT22;9633;50.980;13.850;2022-12-26T10:23:40;14.50;99.90
19000;DHT22;9633;50.980;13.850;2022-12-26T10:25:17;14.50;99.90
19000;DHT22;9633;50.980;13.850;2022-12-26T10:26:54;14.50;99.90
19000;DHT22;9633;50.980;13.850;2022-12-26T10:28:32;14.50;99.90
19000;DHT22;9633;50.980;13.850;2022-12-26T10:30:14;14.40;99.90
19000;DHT22;9633;50.980;13.850;2022-12-26T10:31:51;14.40;99.90
19000;DHT22;9633;50.980;13.850;2022-12-26T10:33:33;14.30;99.90
19000;DHT22;9633;50.980;13.850;2022-12-26T10:35:17;14.20;99.90
19000;DHT22;9633;50.980;13.850;2022-12-26T10:36:56;14.20;99.90